Time;durP1;ratioP1;P1;durP2;ratioP2;P2;SDS_P1;SDS_P2;PMS_P1;PMS_P2;Temp;Humidity;BMP_temperature;BMP_pressure;BME280_temperature;BME280_humidity;BME280_pressure;Samples;Min_cycle;Max_cycle;Signal;HPM_P1;HPM_P2
2022/06/05 00:01:49;;;;;;;7.37;6.58;;;;;;;15.80;56.12;101445.48;1720822;83;20954;-72
2022/06/05 00:04:35;;;;;;;8.18;6.85;;;;;;;15.79;56.13;101441.61;1659886;84;20922;-73
2022/06/05 00:07:28;;;;;;;8.50;7.17;;;;;;;15.74;56.20;101449.55;1660706;86;20852;-73
2022/06/05 00:10:25;;;;;;;7.20;6.50;;;;;;;15.70;56.22;101450.95;1712770;81;20917;-73
2022/06/05 00:13:24;;;;;;;9.20;6.47;;;;;;;15.64;56.42;101449.34;1719308;83;21090;-73
2022/06/05 00:15:53;;;;;;;7.83;6.70;;;;;;;15.57;56.36;101456.94;1717878;82;21048;-72
2022/06/05 00:18:20;;;;;;;9.33;7.03;;;;;;;15.42;56.53;101459.41;1718921;83;21044;-72
2022/06/05 00:20:47;;;;;;;7.62;6.75;;;;;;;15.41;56.71;101462.05;1689919;84;24954;-72
2022/06/05 00:23:14;;;;;;;7.45;6.42;;;;;;;15.34;56.66;101466.53;1716919;81;21118;-72
2022/06/05 00:26:13;;;;;;;7.12;6.40;;;;;;;15.26;56.74;101471.50;1713160;83;21050;-72
2022/06/05 00:29:01;;;;;;;8.13;7.15;;;;;;;15.23;56.95;101469.38;1724530;82;21067;-72
2022/06/05 00:31:47;;;;;;;8.90;7.25;;;;;;;15.28;57.04;101467.97;1684648;83;21095;-72
2022/06/05 00:34:18;;;;;;;7.17;6.40;;;;;;;15.31;57.08;101466.60;1661904;85;21116;-72
2022/06/05 00:37:11;;;;;;;7.85;7.17;;;;;;;15.33;57.09;101467.42;1674635;85;23035;-72
2022/06/05 00:40:08;;;;;;;7.60;6.97;;;;;;;15.33;57.15;101471.34;1673978;84;21103;-72
2022/06/05 00:42:34;;;;;;;8.20;6.75;;;;;;;15.30;57.22;101471.84;1705509;83;21050;-72
2022/06/05 00:45:08;;;;;;;;;;;;;;;15.27;57.18;101474.52;1693927;84;21055;-72
2022/06/05 00:47:35;;;;;;;7.92;6.55;;;;;;;15.21;57.76;101468.99;1673936;84;20315;-72
2022/06/05 00:50:14;;;;;;;8.55;7.65;;;;;;;15.15;57.27;101466.52;1673274;85;21035;-72
2022/06/05 00:52:46;;;;;;;7.85;7.10;;;;;;;15.13;57.36;101474.81;1673164;84;21083;-72
2022/06/05 00:55:15;;;;;;;8.50;7.60;;;;;;;15.12;57.40;101475.70;1681026;84;21048;-72
2022/06/05 00:57:42;;;;;;;8.43;7.58;;;;;;;15.09;57.42;101479.22;1631372;85;21120;-73
2022/06/05 01:00:24;;;;;;;;;;;;;;;15.05;57.49;101479.35;1676991;84;21136;-72
2022/06/05 01:02:55;;;;;;;8.43;7.25;;;;;;;15.02;58.03;101472.91;1712584;83;20208;-72
2022/06/05 01:05:26;;;;;;;10.70;7.37;;;;;;;14.97;57.61;101473.44;1691932;83;20894;-72
2022/06/05 01:07:53;;;;;;;7.00;6.40;;;;;;;14.90;57.66;101468.80;1699586;83;21110;-72
2022/06/05 01:10:23;;;;;;;8.40;7.33;;;;;;;14.85;57.75;101471.50;1661520;86;21063;-72
2022/06/05 01:13:05;;;;;;;9.40;7.90;;;;;;;14.81;57.74;101470.28;1674214;84;21127;-72
2022/06/05 01:15:48;;;;;;;8.98;7.47;;;;;;;14.77;57.83;101467.33;1674466;85;21086;-72
2022/06/05 01:18:30;;;;;;;8.80;7.33;;;;;;;14.67;57.78;101467.95;1723255;81;21047;-72
2022/06/05 01:21:17;;;;;;;11.60;7.08;;;;;;;14.61;57.97;101475.88;1681359;81;21092;-72
2022/06/05 01:24:05;;;;;;;8.10;7.30;;;;;;;14.62;58.00;101476.73;1725199;82;21055;-72
2022/06/05 01:26:50;;;;;;;7.75;7.05;;;;;;;14.58;58.08;101478.53;1726336;81;21048;-72
2022/06/05 01:29:20;;;;;;;;;;;;;;;14.56;58.09;101478.56;1731529;81;20905;-72
2022/06/05 01:31:56;;;;;;;7.78;6.97;;;;;;;14.48;58.46;101470.51;1708297;82;20094;-72
2022/06/05 01:34:40;;;;;;;11.63;7.37;;;;;;;14.43;58.08;101469.29;1684962;83;20968;-72
2022/06/05 01:37:14;;;;;;;12.07;8.00;;;;;;;14.37;58.12;101475.88;1674664;84;20901;-72
2022/06/05 01:39:49;;;;;;;9.25;7.75;;;;;;;14.30;58.17;101472.10;1671116;85;20888;-72
2022/06/05 01:42:32;;;;;;;7.92;7.20;;;;;;;14.27;58.32;101472.16;1673187;84;20968;-72
2022/06/05 01:45:07;;;;;;;8.15;7.33;;;;;;;14.19;58.33;101474.45;1664091;86;20991;-73
2022/06/05 01:47:41;;;;;;;9.28;7.17;;;;;;;14.11;58.37;101473.72;1674859;84;20988;-72
2022/06/05 01:50:27;;;;;;;9.48;7.72;;;;;;;14.09;58.52;101469.42;1674068;84;20968;-72
2022/06/05 01:53:22;;;;;;;8.25;7.55;;;;;;;14.06;58.50;101468.17;1716286;83;20969;-72
2022/06/05 01:56:04;;;;;;;8.03;7.20;;;;;;;14.02;58.59;101467.84;1692318;83;21043;-73
2022/06/05 01:58:36;;;;;;;11.60;8.05;;;;;;;13.99;58.61;101471.79;1672978;84;20961;-73
2022/06/05 02:01:17;;;;;;;9.23;7.67;;;;;;;13.96;58.65;101477.04;1673844;84;21080;-72
2022/06/05 02:03:57;;;;;;;12.25;8.10;;;;;;;13.93;58.75;101480.98;1673919;84;20980;-73
2022/06/05 02:06:32;;;;;;;9.28;7.97;;;;;;;13.88;58.72;101477.16;1662509;84;21075;-73
2022/06/05 02:09:19;;;;;;;10.55;8.63;;;;;;;13.84;58.86;101478.09;1671391;85;21095;-73
2022/06/05 02:11:46;;;;;;;;;;;;;;;13.82;58.89;101478.55;1676993;84;21062;-72
2022/06/05 02:14:13;;;;;;;8.88;7.97;;;;;;;13.77;59.39;101481.22;1715744;83;20153;-73
2022/06/05 02:16:42;;;;;;;10.63;9.20;;;;;;;13.72;58.95;101484.77;1713928;82;21132;-73
2022/06/05 02:19:16;;;;;;;9.60;8.63;;;;;;;13.64;59.05;101484.02;1689921;83;21055;-73
2022/06/05 02:21:43;;;;;;;11.65;8.18;;;;;;;13.52;59.14;101485.06;1674271;85;21087;-73
2022/06/05 02:24:12;;;;;;;10.03;8.58;;;;;;;13.49;59.27;101485.99;1661576;84;21063;-73
2022/06/05 02:26:41;;;;;;;10.75;8.28;;;;;;;13.48;59.28;101486.02;1719307;83;20944;-73
2022/06/05 02:29:23;;;;;;;10.63;8.88;;;;;;;13.48;59.36;101482.98;1691342;83;20880;-73
2022/06/05 02:32:19;;;;;;;9.83;8.18;;;;;;;13.46;59.35;101486.48;1720052;83;20947;-73
2022/06/05 02:35:08;;;;;;;12.55;8.88;;;;;;;13.39;59.33;101495.23;1720528;82;21390;-72
2022/06/05 02:37:59;;;;;;;10.03;8.78;;;;;;;13.36;59.54;101503.92;1666432;83;21051;-73
2022/06/05 02:40:55;;;;;;;10.48;8.80;;;;;;;13.38;59.56;101500.01;1716537;82;21040;-72
2022/06/05 02:43:45;;;;;;;10.58;8.68;;;;;;;13.34;59.58;101507.42;1707184;83;20962;-73
2022/06/05 02:46:22;;;;;;;10.43;8.45;;;;;;;13.33;59.66;101501.80;1718514;82;21454;-73
2022/06/05 02:49:16;;;;;;;11.15;8.93;;;;;;;13.31;59.68;101505.72;1685395;84;20888;-73
2022/06/05 02:51:45;;;;;;;9.95;8.45;;;;;;;13.31;59.76;101510.91;1720377;81;20881;-73
2022/06/05 02:54:26;;;;;;;12.55;8.73;;;;;;;13.32;59.82;101510.03;1720423;81;20925;-72
2022/06/05 02:56:55;;;;;;;10.30;9.13;;;;;;;13.32;59.81;101512.64;1681360;84;20955;-73
2022/06/05 02:59:23;;;;;;;8.88;7.87;;;;;;;13.29;59.85;101517.87;1719652;82;20948;-73
2022/06/05 03:04:34;;;;;;;9.60;8.18;;;;;;;13.23;59.93;101508.86;1709778;82;20940;-73
2022/06/05 03:07:00;;;;;;;11.48;8.75;;;;;;;13.23;59.99;101514.91;1720249;83;20897;-73
2022/06/05 03:09:27;;;;;;;8.95;8.13;;;;;;;13.22;60.01;101514.92;1690280;83;20932;-73
2022/06/05 03:11:53;;;;;;;11.25;8.75;;;;;;;13.18;59.92;101515.84;1720939;82;20945;-73
2022/06/05 03:14:20;;;;;;;9.43;7.87;;;;;;;13.10;60.06;101521.09;1720656;83;20886;-72
2022/06/05 03:16:47;;;;;;;8.83;8.03;;;;;;;13.11;60.14;101520.22;1719916;81;21028;-73
2022/06/05 03:19:13;;;;;;;9.90;8.93;;;;;;;13.11;60.17;101519.36;1676323;85;20933;-72
2022/06/05 03:21:40;;;;;;;9.98;8.98;;;;;;;13.04;60.16;101521.16;1676397;84;20972;-72
2022/06/05 03:24:08;;;;;;;9.33;8.30;;;;;;;13.04;60.29;101526.80;1675032;84;20953;-72
2022/06/05 03:26:35;;;;;;;8.33;7.53;;;;;;;13.07;60.41;101526.33;1677585;84;20939;-72
2022/06/05 03:29:03;;;;;;;8.30;7.47;;;;;;;13.14;60.44;101520.18;1713892;82;20941;-72
2022/06/05 03:31:29;;;;;;;8.05;7.35;;;;;;;13.18;60.38;101525.80;1695251;82;20905;-73
2022/06/05 03:33:56;;;;;;;10.78;8.10;;;;;;;13.15;60.30;101526.23;1692264;82;21390;-73
2022/06/05 03:36:22;;;;;;;8.28;7.53;;;;;;;13.14;60.45;101529.71;1713734;83;20913;-73
2022/06/05 03:38:48;;;;;;;10.10;9.10;;;;;;;13.16;60.57;101531.45;1677407;84;20932;-73
2022/06/05 03:41:17;;;;;;;9.70;8.80;;;;;;;13.20;60.45;101529.67;1676799;84;20888;-72
2022/06/05 03:43:43;;;;;;;9.60;8.63;;;;;;;13.20;60.58;101529.23;1678170;84;20956;-72
2022/06/05 03:46:13;;;;;;;9.25;8.23;;;;;;;13.25;60.64;101530.03;1677379;84;20964;-73
2022/06/05 03:48:42;;;;;;;9.65;8.65;;;;;;;13.28;60.66;101533.47;1560340;84;10000506;-73
2022/06/05 03:51:16;;;;;;;10.50;8.88;;;;;;;13.28;60.74;101530.44;1677284;85;22480;-73
2022/06/05 03:53:43;;;;;;;12.50;9.53;;;;;;;13.32;60.80;101539.91;1713919;83;20913;-73
2022/06/05 03:56:11;;;;;;;;;;;;;;;13.35;60.76;101537.27;1679486;84;20892;-73
2022/06/05 03:58:37;;;;;;;13.72;9.78;;;;;;;13.34;61.18;101531.66;1713753;83;20434;-73
2022/06/05 04:01:09;;;;;;;11.93;9.90;;;;;;;13.37;60.89;101529.47;1713309;82;20910;-73
2022/06/05 04:03:36;;;;;;;10.15;9.15;;;;;;;13.42;60.97;101528.52;1713727;83;20941;-73
2022/06/05 04:06:12;;;;;;;10.20;9.13;;;;;;;13.68;61.29;101528.58;1713901;83;20933;-73
2022/06/05 04:08:40;;;;;;;11.30;9.05;;;;;;;14.35;61.46;101524.47;1677030;84;21494;-73
2022/06/05 04:11:13;;;;;;;9.30;8.40;;;;;;;14.60;61.04;101532.72;1714006;83;20909;-73
2022/06/05 04:13:40;;;;;;;11.00;9.08;;;;;;;14.57;60.85;101529.73;1711326;82;20940;-72
2022/06/05 04:16:12;;;;;;;9.60;8.70;;;;;;;14.55;60.84;101532.83;1701969;82;20913;-73
2022/06/05 04:18:39;;;;;;;10.43;9.43;;;;;;;14.46;60.87;101530.83;1710635;82;21305;-73
2022/06/05 04:21:08;;;;;;;9.73;8.65;;;;;;;14.44;61.03;101529.56;1714172;83;20945;-73
2022/06/05 04:23:35;;;;;;;13.40;9.05;;;;;;;14.43;61.02;101529.58;1648070;86;20910;-72
2022/06/05 04:26:02;;;;;;;9.35;8.23;;;;;;;14.44;61.00;101530.86;1692152;83;20941;-72
2022/06/05 04:28:29;;;;;;;12.88;9.08;;;;;;;14.41;61.04;101536.11;1686520;83;20945;-73
2022/06/05 04:30:56;;;;;;;9.45;8.55;;;;;;;14.39;61.08;101539.59;1681988;84;20945;-73
2022/06/05 04:33:22;;;;;;;12.05;8.20;;;;;;;14.39;61.06;101543.50;1688080;84;20902;-73
2022/06/05 04:35:49;;;;;;;9.33;8.18;;;;;;;14.35;61.01;101543.98;1688134;83;20953;-73
2022/06/05 04:38:16;;;;;;;9.23;8.43;;;;;;;14.28;61.11;101545.41;1687895;84;20874;-73
2022/06/05 04:40:42;;;;;;;9.43;7.97;;;;;;;14.33;61.13;101548.80;1688036;84;20895;-73
2022/06/05 04:43:08;;;;;;;10.72;8.53;;;;;;;14.42;61.14;101549.55;1688072;84;20858;-73
2022/06/05 04:45:35;;;;;;;8.35;7.65;;;;;;;14.48;60.99;101539.03;1685325;83;21012;-73
2022/06/05 04:48:02;;;;;;;11.85;7.83;;;;;;;14.48;60.99;101539.03;1685199;85;21109;-73
2022/06/05 04:50:28;;;;;;;8.48;7.60;;;;;;;14.55;61.16;101543.24;1676661;85;21071;-73
2022/06/05 04:52:55;;;;;;;10.40;7.87;;;;;;;14.70;61.17;101538.17;1662514;84;21172;-73
2022/06/05 04:55:21;;;;;;;9.23;7.75;;;;;;;14.86;61.09;101541.36;1676417;84;21554;-73
2022/06/05 04:57:48;;;;;;;8.00;7.12;;;;;;;14.99;61.03;101546.75;1664726;86;22557;-73
2022/06/05 05:00:15;;;;;;;7.85;7.20;;;;;;;15.36;61.27;101553.80;1674980;84;20917;-73
2022/06/05 05:02:41;;;;;;;;;;;;;;;16.00;61.30;101556.31;1667535;84;21309;-73
2022/06/05 05:05:08;;;;;;;7.75;6.08;;;;;;;16.74;61.16;101562.71;1663898;84;20231;-72
2022/06/05 05:07:35;;;;;;;11.38;6.85;;;;;;;17.54;61.13;101564.34;1678057;85;20920;-73
2022/06/05 05:10:01;;;;;;;7.00;6.33;;;;;;;18.50;60.93;101556.48;1663784;84;25116;-72
2022/06/05 05:12:28;;;;;;;6.42;5.83;;;;;;;19.47;60.62;101559.52;1686658;83;21020;-72
2022/06/05 05:14:54;;;;;;;9.85;6.40;;;;;;;20.28;60.19;101558.06;1676112;83;21073;-72
2022/06/05 05:17:21;;;;;;;6.58;5.62;;;;;;;20.98;59.88;101556.38;1685392;83;21124;-72
2022/06/05 05:19:47;;;;;;;7.12;6.00;;;;;;;21.37;59.58;101560.31;1686023;84;21089;-72
2022/06/05 05:22:13;;;;;;;5.62;5.08;;;;;;;21.75;59.33;101555.44;1639542;86;21084;-72
2022/06/05 05:24:40;;;;;;;7.37;5.25;;;;;;;22.26;59.32;101553.84;1662817;84;21032;-72
2022/06/05 05:27:07;;;;;;;6.90;6.05;;;;;;;22.65;58.97;101552.27;1662883;86;21152;-73
2022/06/05 05:29:33;;;;;;;6.40;5.80;;;;;;;22.94;58.63;101550.76;1692591;83;21003;-73
2022/06/05 05:32:00;;;;;;;6.12;5.45;;;;;;;22.97;58.68;101551.91;1685380;83;21048;-73
2022/06/05 05:34:26;;;;;;;5.15;4.30;;;;;;;23.24;58.58;101553.55;1693207;83;21457;-73
2022/06/05 05:36:53;;;;;;;7.03;5.25;;;;;;;23.66;58.31;101554.79;1693104;83;21060;-73
2022/06/05 05:42:04;;;;;;;7.20;4.75;;;;;;;23.98;57.41;101554.27;1658604;84;21037;-73
2022/06/05 05:44:42;;;;;;;;;;;;;;;24.09;57.31;101553.19;1695816;83;21548;-73
2022/06/05 05:47:22;;;;;;;4.78;4.30;;;;;;;24.00;56.11;101550.60;1692652;84;20134;-73
2022/06/05 05:49:56;;;;;;;4.85;4.35;;;;;;;23.80;56.70;101547.42;1693289;83;21496;-73
2022/06/05 05:52:23;;;;;;;4.12;3.83;;;;;;;24.02;56.88;101550.05;1693468;83;20878;-73
2022/06/05 05:54:50;;;;;;;4.40;4.03;;;;;;;24.36;56.16;101548.98;1694997;84;21475;-73
2022/06/05 05:57:18;;;;;;;4.40;4.00;;;;;;;24.60;56.01;101555.05;1664473;84;20902;-73
2022/06/05 05:59:50;;;;;;;4.92;3.67;;;;;;;24.86;55.45;101547.73;1683327;84;21426;-73
2022/06/05 06:02:21;;;;;;;7.83;3.70;;;;;;;25.05;55.38;101550.09;1688384;83;26327;-73
2022/06/05 06:04:50;;;;;;;7.58;3.90;;;;;;;25.44;55.01;101548.09;1694761;83;20901;-73
2022/06/05 06:07:22;;;;;;;4.10;3.70;;;;;;;25.59;54.53;101547.08;1694803;84;21529;-73
2022/06/05 06:09:49;;;;;;;3.55;3.30;;;;;;;25.78;53.95;101540.64;1694975;83;20910;-73
2022/06/05 06:12:15;;;;;;;4.20;3.77;;;;;;;25.88;53.96;101547.04;1694543;83;21382;-73
2022/06/05 06:14:42;;;;;;;;;;;;;;;26.05;53.36;101544.10;1697472;83;21410;-73
2022/06/05 06:17:08;;;;;;;4.03;3.72;;;;;;;25.99;52.77;101544.06;1694965;83;20164;-73
2022/06/05 06:19:34;;;;;;;4.00;3.58;;;;;;;26.16;53.08;101536.77;1664664;84;21457;-71
2022/06/05 06:22:01;;;;;;;3.60;3.30;;;;;;;26.64;52.79;101532.61;1694346;83;28196;-70
2022/06/05 06:24:27;;;;;;;3.72;3.02;;;;;;;26.97;52.30;101533.43;1695010;83;20906;-70
2022/06/05 06:26:54;;;;;;;3.98;3.67;;;;;;;27.45;52.24;101530.88;1714601;83;21442;-70
2022/06/05 06:29:20;;;;;;;3.35;3.12;;;;;;;28.12;51.95;101535.19;1693835;83;20927;-70
2022/06/05 06:31:46;;;;;;;3.98;3.55;;;;;;;28.85;51.21;101534.91;1675226;84;21405;-70
2022/06/05 06:34:13;;;;;;;3.90;3.52;;;;;;;29.45;50.99;101531.02;1675960;85;21528;-70
2022/06/05 06:36:39;;;;;;;3.72;3.42;;;;;;;29.98;50.53;101528.77;1672580;84;21508;-70
2022/06/05 06:39:06;;;;;;;;;;;;;;;30.44;50.18;101523.56;1676717;85;21659;-70
2022/06/05 06:41:32;;;;;;;3.95;3.50;;;;;;;30.71;49.88;101519.02;1715194;83;20581;-70
2022/06/05 06:44:12;;;;;;;5.03;3.22;;;;;;;30.86;49.22;101520.35;1692823;83;21432;-70
2022/06/05 06:46:39;;;;;;;3.92;3.30;;;;;;;31.09;48.63;101520.17;1667978;84;21667;-70
2022/06/05 06:49:06;;;;;;;3.00;2.80;;;;;;;31.39;47.84;101523.28;1674718;85;21530;-70
2022/06/05 06:51:32;;;;;;;3.37;3.08;;;;;;;31.52;47.34;101523.39;1672983;84;21437;-70
2022/06/05 06:53:59;;;;;;;3.75;3.40;;;;;;;31.92;46.50;101524.63;1674340;85;21111;-70
2022/06/05 06:56:30;;;;;;;3.12;2.83;;;;;;;32.14;45.73;101523.98;1674237;85;21568;-70
2022/06/05 06:58:59;;;;;;;3.12;2.83;;;;;;;32.15;44.68;101522.50;1673282;84;21607;-71
2022/06/05 07:01:26;;;;;;;3.37;3.08;;;;;;;31.92;44.29;101515.75;1670290;84;21572;-71
2022/06/05 07:03:53;;;;;;;3.02;2.83;;;;;;;31.74;44.18;101515.61;1663119;85;21873;-71
2022/06/05 07:06:22;;;;;;;3.55;3.25;;;;;;;32.01;43.54;101513.56;1667527;84;21599;-71
2022/06/05 07:08:49;;;;;;;2.80;2.60;;;;;;;32.39;43.19;101523.39;1669613;85;21493;-71
2022/06/05 07:11:18;;;;;;;3.22;3.00;;;;;;;32.86;42.41;101524.24;1667937;84;21061;-71
2022/06/05 07:13:44;;;;;;;2.95;2.65;;;;;;;32.83;41.58;101519.67;1674272;84;21140;-71
2022/06/05 07:16:12;;;;;;;3.12;2.80;;;;;;;33.09;41.21;101511.80;1662752;86;21683;-71
2022/06/05 07:18:40;;;;;;;3.83;2.98;;;;;;;33.09;40.44;101513.14;1674200;85;22143;-71
2022/06/05 07:21:17;;;;;;;4.67;2.35;;;;;;;32.46;39.69;101511.11;1673546;84;21096;-71
2022/06/05 07:23:45;;;;;;;2.62;2.42;;;;;;;32.01;39.19;101509.55;1692550;84;21443;-71
2022/06/05 07:26:15;;;;;;;3.05;2.75;;;;;;;31.54;38.80;101516.56;1657161;85;21007;-71
2022/06/05 07:28:42;;;;;;;3.37;3.08;;;;;;;31.33;38.22;101511.80;1674491;84;21446;-71
2022/06/05 07:31:10;;;;;;;3.65;2.55;;;;;;;31.20;37.93;101510.71;1672896;84;21151;-71
2022/06/05 07:33:38;;;;;;;3.27;2.70;;;;;;;30.54;37.24;101514.28;1673980;85;21523;-71
2022/06/05 07:36:09;;;;;;;3.75;2.80;;;;;;;30.19;37.10;101512.78;1669921;85;20988;-71
2022/06/05 07:38:36;;;;;;;3.30;2.90;;;;;;;30.00;37.14;101503.33;1670415;84;20941;-71
2022/06/05 07:41:05;;;;;;;3.00;2.80;;;;;;;30.23;37.01;101502.21;1673414;85;21512;-71
2022/06/05 07:43:32;;;;;;;3.40;3.02;;;;;;;30.51;36.62;101503.86;1675780;85;20961;-71
2022/06/05 07:46:05;;;;;;;4.37;3.08;;;;;;;30.57;36.47;101502.88;1674202;84;20953;-71
2022/06/05 07:48:31;;;;;;;3.30;2.90;;;;;;;30.70;36.22;101499.97;1691589;83;20884;-71
2022/06/05 07:56:39;;;;;;;3.02;2.62;;;;;;;29.59;35.59;101503.60;1693001;83;20916;-71
2022/06/05 07:59:07;;;;;;;3.15;2.85;;;;;;;29.51;34.94;101506.53;1675826;85;20921;-71
2022/06/05 08:01:35;;;;;;;3.33;3.02;;;;;;;29.45;35.04;101514.54;1675541;84;20958;-71
2022/06/05 08:04:01;;;;;;;5.08;2.83;;;;;;;29.36;34.88;101511.25;1675820;84;20954;-71
2022/06/05 08:06:27;;;;;;;;;;;;;;;29.37;34.58;101512.95;1677434;85;21060;-71
2022/06/05 08:08:54;;;;;;;3.67;3.33;;;;;;;29.34;34.96;101514.52;1715179;83;20128;-71
2022/06/05 08:11:20;;;;;;;3.50;3.20;;;;;;;29.24;34.24;101515.75;1691941;83;21150;-71
2022/06/05 08:13:46;;;;;;;2.87;2.67;;;;;;;28.90;34.17;101510.11;1662311;85;21110;-70
2022/06/05 08:16:15;;;;;;;3.15;2.95;;;;;;;28.83;34.36;101505.75;1672879;84;21658;-70
2022/06/05 08:18:41;;;;;;;5.37;3.20;;;;;;;28.83;34.18;101511.55;1687514;84;20979;-72
2022/06/05 08:21:08;;;;;;;3.25;2.92;;;;;;;28.97;34.15;101508.66;1673744;84;21099;-71
2022/06/05 08:23:36;;;;;;;2.98;2.77;;;;;;;29.08;33.83;101508.65;1667665;85;21479;-71
2022/06/05 08:26:02;;;;;;;3.02;2.75;;;;;;;28.88;33.48;101507.56;1663622;85;21111;-71
2022/06/05 08:28:29;;;;;;;3.20;2.90;;;;;;;28.55;33.56;101503.54;1668892;84;21079;-71
2022/06/05 08:30:57;;;;;;;3.77;3.47;;;;;;;28.34;33.66;101502.05;1673625;85;21088;-71
2022/06/05 08:33:23;;;;;;;2.90;2.52;;;;;;;28.34;33.40;101504.70;1673760;84;21123;-71
2022/06/05 08:35:51;;;;;;;2.92;2.72;;;;;;;28.28;33.48;101502.51;1663660;85;21631;-71
2022/06/05 08:41:30;;;;;;;3.70;3.15;;;;;;;28.72;33.66;101497.72;1672745;84;21080;-71
2022/06/05 08:44:13;;;;;;;3.33;2.80;;;;;;;28.80;33.25;101484.66;1669769;84;21132;-71
2022/06/05 08:47:04;;;;;;;5.37;3.45;;;;;;;28.83;33.52;101487.11;1672976;84;21084;-71
2022/06/05 08:50:02;;;;;;;3.12;2.77;;;;;;;28.95;33.55;101485.30;1677649;84;21143;-71
2022/06/05 08:52:42;;;;;;;3.10;2.90;;;;;;;29.10;33.44;101474.75;1673360;84;21428;-72
2022/06/05 08:55:26;;;;;;;3.25;2.92;;;;;;;29.34;33.20;101465.23;1682714;84;21083;-71
2022/06/05 08:57:58;;;;;;;3.27;2.98;;;;;;;29.47;33.23;101461.96;1691374;84;21150;-71
2022/06/05 09:00:33;;;;;;;3.40;2.77;;;;;;;29.44;33.32;101459.55;1670600;84;21176;-71
2022/06/05 09:03:22;;;;;;;2.95;2.75;;;;;;;29.60;33.34;101459.98;1673686;85;21031;-71
2022/06/05 09:05:54;;;;;;;3.60;3.20;;;;;;;29.64;33.07;101456.05;1673763;84;21076;-71
2022/06/05 09:08:28;;;;;;;5.62;2.77;;;;;;;29.38;32.85;101453.35;1714734;83;21024;-71
2022/06/05 09:11:04;;;;;;;3.05;2.77;;;;;;;28.54;32.94;101456.60;1690440;83;21052;-71
2022/06/05 09:13:51;;;;;;;4.75;3.30;;;;;;;27.75;32.57;101445.41;1674014;84;20964;-71
2022/06/05 09:16:32;;;;;;;3.60;3.10;;;;;;;27.04;32.58;101445.25;1672901;85;21012;-71
2022/06/05 09:18:59;;;;;;;3.22;3.02;;;;;;;26.49;32.55;101437.71;1675374;84;20945;-70
2022/06/05 09:21:36;;;;;;;3.00;2.70;;;;;;;26.20;32.63;101443.66;1670761;84;20952;-70
2022/06/05 09:24:23;;;;;;;4.30;2.62;;;;;;;25.90;32.57;101436.48;1668903;85;20920;-70
2022/06/05 09:27:13;;;;;;;3.58;2.83;;;;;;;25.66;32.42;101437.16;1655679;84;21319;-71
2022/06/05 09:29:47;;;;;;;3.47;3.17;;;;;;;25.44;32.62;101441.31;1673825;84;21430;-71
2022/06/05 09:32:31;;;;;;;3.52;3.22;;;;;;;25.23;32.56;101443.07;1671412;83;20955;-71
2022/06/05 09:35:03;;;;;;;2.70;2.50;;;;;;;24.98;32.56;101444.25;1669287;84;20925;-71
2022/06/05 09:37:48;;;;;;;4.08;3.37;;;;;;;24.45;32.98;101439.63;1671992;83;20957;-71
2022/06/05 09:40:20;;;;;;;4.90;3.27;;;;;;;24.08;32.89;101418.05;1674586;84;20949;-71
2022/06/05 09:43:11;;;;;;;3.77;3.20;;;;;;;24.08;32.89;101418.05;1647801;85;20976;-71
2022/06/05 09:45:49;;;;;;;4.62;3.12;;;;;;;24.00;33.02;101436.14;1648246;85;20972;-71
2022/06/05 09:48:33;;;;;;;3.95;2.60;;;;;;;24.00;33.13;101428.22;1648025;85;20890;-72
2022/06/05 09:51:01;;;;;;;3.67;2.92;;;;;;;24.06;33.39;101427.85;1674259;84;20888;-73
2022/06/05 09:53:31;;;;;;;3.20;2.90;;;;;;;24.08;33.32;101432.58;1648143;87;20972;-73
2022/06/05 09:56:34;;;;;;;3.98;3.42;;;;;;;24.01;33.39;101431.23;1571389;84;5000646;-73
2022/06/05 09:59:20;;;;;;;3.95;3.10;;;;;;;23.87;33.43;101428.58;1626757;88;20961;-73
2022/06/05 10:01:56;;;;;;;3.87;3.50;;;;;;;23.82;33.68;101431.49;1648069;85;20982;-73
2022/06/05 10:04:26;;;;;;;;;;;;;;;23.81;33.79;101430.27;1650179;85;20965;-73
2022/06/05 10:06:57;;;;;;;3.37;3.10;;;;;;;23.83;34.07;101429.23;1646180;86;20118;-73
2022/06/05 10:09:27;;;;;;;3.72;3.20;;;;;;;23.71;33.96;101425.52;1631138;85;21767;-73
2022/06/05 10:12:07;;;;;;;5.65;3.08;;;;;;;23.68;34.10;101413.80;1626553;85;20957;-73
2022/06/05 10:14:44;;;;;;;3.25;2.95;;;;;;;23.64;34.42;101407.00;1626149;87;20959;-73
2022/06/05 10:17:38;;;;;;;3.62;2.65;;;;;;;23.57;34.33;101404.80;1647526;87;20921;-73
2022/06/05 10:20:24;;;;;;;3.77;3.25;;;;;;;23.57;34.47;101403.01;1647446;87;21037;-73
2022/06/05 10:23:02;;;;;;;4.90;3.20;;;;;;;23.59;34.58;101406.41;1642386;85;20950;-73
2022/06/05 10:25:53;;;;;;;3.75;2.98;;;;;;;23.49;34.64;101402.56;1643106;86;20964;-73
2022/06/05 10:28:24;;;;;;;3.67;3.37;;;;;;;23.46;34.81;101397.46;1664338;84;20953;-73
2022/06/05 10:31:10;;;;;;;4.05;2.87;;;;;;;23.56;35.00;101392.06;1665330;86;20926;-73
2022/06/05 10:34:18;;;;;;;3.95;2.70;;;;;;;23.64;35.04;101397.75;1642747;86;21008;-73
2022/06/05 10:37:13;;;;;;;2.77;2.08;;;;;;;23.74;35.30;101390.15;1665712;84;20874;-73
2022/06/05 10:40:07;;;;;;;5.08;2.52;;;;;;;23.79;35.28;101393.84;1655527;86;20889;-73
2022/06/05 10:43:02;;;;;;;3.05;2.83;;;;;;;23.78;35.31;101385.54;1661087;86;20960;-73
2022/06/05 10:45:49;;;;;;;3.37;2.60;;;;;;;23.61;35.38;101381.23;1660838;84;20973;-73
2022/06/05 10:48:56;;;;;;;3.58;2.52;;;;;;;23.52;35.67;101378.63;1665546;84;20964;-73
2022/06/05 10:51:47;;;;;;;3.20;2.92;;;;;;;23.58;35.77;101384.05;1656058;86;20961;-73
2022/06/05 10:54:39;;;;;;;5.10;2.58;;;;;;;23.70;35.82;101384.20;1660306;86;20917;-73
2022/06/05 10:57:26;;;;;;;3.80;2.58;;;;;;;23.71;35.86;101389.86;1665402;84;20877;-73
2022/06/05 11:00:18;;;;;;;3.65;3.25;;;;;;;23.79;35.88;101393.84;1664077;84;20967;-73
2022/06/05 11:03:28;;;;;;;4.67;2.80;;;;;;;23.71;36.00;101383.26;1664290;85;20953;-73
2022/06/05 11:06:25;;;;;;;2.85;2.65;;;;;;;23.72;36.03;101386.75;1665797;84;20951;-73
2022/06/05 11:09:16;;;;;;;2.55;2.35;;;;;;;23.75;36.16;101390.06;1665464;86;20913;-73
2022/06/05 11:15:24;;;;;;;4.53;2.60;;;;;;;23.81;36.31;101376.11;1666380;84;20964;-73
2022/06/05 11:18:05;;;;;;;3.35;3.05;;;;;;;23.92;36.34;101377.62;1626085;84;20969;-73
2022/06/05 11:20:33;;;;;;;4.53;2.87;;;;;;;23.92;36.36;101370.55;1667085;84;20918;-73
2022/06/05 11:23:07;;;;;;;3.67;2.92;;;;;;;23.85;36.50;101378.48;1642325;86;20917;-73
2022/06/05 11:26:00;;;;;;;3.22;2.98;;;;;;;23.80;36.61;101376.59;1671990;84;20917;-73
2022/06/05 11:28:57;;;;;;;2.60;2.40;;;;;;;23.75;36.54;101366.77;1642518;84;20922;-73
2022/06/05 11:31:42;;;;;;;2.05;1.95;;;;;;;23.76;36.69;101360.07;1640537;85;20933;-71
2022/06/05 11:34:45;;;;;;;3.80;2.58;;;;;;;23.76;36.74;101349.97;1647833;85;20926;-77
2022/06/05 11:37:23;;;;;;;4.28;3.27;;;;;;;23.86;36.82;101356.88;1651348;85;20938;-74
2022/06/05 11:40:09;;;;;;;2.52;2.33;;;;;;;23.95;36.84;101353.66;1658037;85;20910;-72
2022/06/05 11:42:58;;;;;;;2.40;2.17;;;;;;;24.02;36.95;101339.14;1647992;85;20945;-71
2022/06/05 11:45:47;;;;;;;3.30;3.00;;;;;;;24.14;36.98;101332.26;1648172;85;21537;-71
2022/06/05 11:48:31;;;;;;;4.30;2.75;;;;;;;24.19;37.07;101330.19;1647366;85;20882;-73
2022/06/05 11:51:24;;;;;;;6.10;3.15;;;;;;;24.19;37.09;101324.43;1642100;85;21061;-73
2022/06/05 11:54:19;;;;;;;2.85;2.50;;;;;;;24.22;37.11;101328.68;1644655;85;20965;-73
2022/06/05 11:57:14;;;;;;;3.70;3.08;;;;;;;24.20;37.21;101323.95;1647535;85;20887;-74
2022/06/05 11:59:51;;;;;;;;;;;;;;;24.16;37.08;101319.33;1639963;85;21462;-75
2022/06/05 12:02:49;;;;;;;2.55;2.35;;;;;;;24.12;37.30;101322.26;1647929;85;20137;-76
2022/06/05 12:05:42;;;;;;;2.87;2.55;;;;;;;24.12;37.27;101314.33;1645115;85;21367;-74
2022/06/05 12:08:16;;;;;;;3.30;2.50;;;;;;;24.24;37.30;101314.42;1647025;85;20962;-74
2022/06/05 12:11:13;;;;;;;3.83;2.77;;;;;;;24.29;37.30;101312.38;1645352;85;20902;-74
2022/06/05 12:14:07;;;;;;;3.05;2.27;;;;;;;24.32;37.38;101306.91;1646751;85;20934;-74
2022/06/05 12:16:45;;;;;;;2.33;2.12;;;;;;;24.40;37.34;101294.53;1650318;85;20878;-74
2022/06/05 12:20:03;;;;;;;3.17;2.47;;;;;;;24.44;37.42;101293.36;1637602;85;20929;-74
2022/06/05 12:23:09;;;;;;;2.40;2.20;;;;;;;24.56;37.40;101295.23;1646525;85;20969;-73